createdAt,value
2018-12-19T00:01:20.472Z,1.90
2018-12-19T00:03:51.931Z,2.20
2018-12-19T00:06:22.763Z,1.80
2018-12-19T00:08:53.879Z,2.07
2018-12-19T00:11:24.654Z,1.80
2018-12-19T00:13:55.383Z,2.63
2018-12-19T00:16:26.143Z,2.07
2018-12-19T00:18:56.967Z,2.00
2018-12-19T00:21:27.991Z,1.97
2018-12-19T00:23:58.903Z,1.93
2018-12-19T00:26:30.188Z,1.93
2018-12-19T00:29:01.476Z,2.03
2018-12-19T00:31:33.701Z,1.83
2018-12-19T00:34:05.019Z,1.97
2018-12-19T00:36:35.737Z,2.03
2018-12-19T00:39:09.621Z,2.03
2018-12-19T00:41:40.910Z,2.17
2018-12-19T00:44:11.638Z,1.93
2018-12-19T00:46:42.484Z,2.23
2018-12-19T00:49:13.355Z,2.00
2018-12-19T00:51:44.132Z,2.07
2018-12-19T00:54:14.816Z,1.70
2018-12-19T00:56:45.573Z,1.90
2018-12-19T00:59:16.390Z,2.10
2018-12-19T01:01:47.242Z,2.00
2018-12-19T01:04:17.903Z,2.00
2018-12-19T01:06:48.732Z,2.40
2018-12-19T01:09:19.490Z,1.80
2018-12-19T01:11:50.143Z,2.30
2018-12-19T01:14:21.007Z,1.93
2018-12-19T01:16:51.802Z,2.30
2018-12-19T01:19:22.663Z,2.20
2018-12-19T01:21:54.747Z,2.17
2018-12-19T01:24:25.622Z,2.17
2018-12-19T01:26:56.594Z,2.50
2018-12-19T01:29:27.328Z,2.40
2018-12-19T01:31:58.210Z,2.47
2018-12-19T01:34:28.922Z,2.00
2018-12-19T01:37:00.884Z,2.40
2018-12-19T01:39:31.656Z,2.47
2018-12-19T01:42:02.832Z,2.17
2018-12-19T01:44:33.602Z,2.43
2018-12-19T01:47:04.767Z,2.13
2018-12-19T01:49:35.662Z,2.30
2018-12-19T01:52:06.564Z,2.20
2018-12-19T01:54:37.244Z,2.50
2018-12-19T01:57:08.198Z,2.80
2018-12-19T01:59:40.399Z,2.40
2018-12-19T02:02:11.653Z,2.30
2018-12-19T02:04:42.732Z,2.70
2018-12-19T02:07:13.782Z,2.30
2018-12-19T02:09:44.674Z,2.27
2018-12-19T02:12:15.894Z,2.30
2018-12-19T02:14:46.960Z,2.23
2018-12-19T02:17:17.752Z,2.20
2018-12-19T02:19:48.597Z,2.03
2018-12-19T02:22:19.260Z,2.07
2018-12-19T02:24:50.036Z,2.60
2018-12-19T02:27:21.129Z,2.57
2018-12-19T02:29:52.273Z,2.40
2018-12-19T02:32:22.915Z,2.27
2018-12-19T02:34:53.832Z,2.43
2018-12-19T02:37:24.764Z,2.00
2018-12-19T02:39:55.418Z,2.10
2018-12-19T02:42:26.119Z,2.17
2018-12-19T02:44:56.750Z,2.63
2018-12-19T02:47:27.940Z,2.10
2018-12-19T02:49:58.977Z,2.30
2018-12-19T02:52:29.796Z,2.40
2018-12-19T02:55:01.466Z,1.77
2018-12-19T02:57:32.446Z,2.43
2018-12-19T03:00:03.165Z,2.20
2018-12-19T03:02:33.887Z,2.10
2018-12-19T03:05:06.206Z,2.20
2018-12-19T03:07:36.911Z,2.30
2018-12-19T03:10:08.454Z,2.13
2018-12-19T03:12:39.299Z,1.90
2018-12-19T03:15:10.292Z,2.20
2018-12-19T03:17:40.950Z,2.30
2018-12-19T03:20:12.579Z,2.00
2018-12-19T03:22:43.833Z,2.20
2018-12-19T03:25:15.370Z,2.03
2018-12-19T03:27:46.443Z,2.73
2018-12-19T03:30:17.167Z,2.10
2018-12-19T03:32:48.079Z,2.70
2018-12-19T03:35:19.191Z,2.30
2018-12-19T03:37:49.882Z,2.40
2018-12-19T03:40:20.547Z,2.20
2018-12-19T03:42:51.315Z,2.20
2018-12-19T03:45:22.217Z,2.30
2018-12-19T03:47:53.062Z,2.47
2018-12-19T03:50:23.774Z,2.37
2018-12-19T03:52:54.744Z,2.20
2018-12-19T03:55:25.769Z,2.50
2018-12-19T03:57:56.847Z,2.10
2018-12-19T04:00:27.914Z,2.07
2018-12-19T04:02:58.736Z,2.33
2018-12-19T04:05:29.547Z,2.20
2018-12-19T04:08:00.556Z,2.57
2018-12-19T04:10:31.299Z,2.23
2018-12-19T04:13:02.149Z,2.30
2018-12-19T04:15:33.526Z,2.63
2018-12-19T04:18:04.514Z,2.40
2018-12-19T04:20:35.356Z,2.20
2018-12-19T04:23:06.319Z,2.40
2018-12-19T04:25:36.976Z,2.03
2018-12-19T04:28:07.652Z,2.43
2018-12-19T04:30:40.583Z,2.10
2018-12-19T04:33:11.262Z,2.20
2018-12-19T04:35:42.409Z,2.67
2018-12-19T04:38:13.642Z,2.50
2018-12-19T04:40:44.519Z,2.30
2018-12-19T04:43:15.161Z,2.50
2018-12-19T04:45:45.779Z,2.17
2018-12-19T04:48:16.949Z,2.03
2018-12-19T04:50:47.677Z,2.50
2018-12-19T04:53:18.437Z,2.10
2018-12-19T04:55:49.095Z,2.30
2018-12-19T04:58:19.792Z,2.17
2018-12-19T05:00:50.921Z,2.27
2018-12-19T05:03:21.943Z,2.33
2018-12-19T05:05:53.178Z,2.50
2018-12-19T05:08:23.837Z,2.03
2018-12-19T05:10:54.584Z,2.07
2018-12-19T05:13:25.301Z,2.37
2018-12-19T05:15:56.289Z,2.03
2018-12-19T05:18:27.031Z,2.40
2018-12-19T05:20:57.911Z,2.27
2018-12-19T05:23:28.739Z,2.07
2018-12-19T05:25:59.475Z,2.17
2018-12-19T05:28:30.523Z,2.10
2018-12-19T05:31:01.598Z,2.17
2018-12-19T05:33:33.543Z,2.60
2018-12-19T05:36:04.248Z,2.23
2018-12-19T05:38:35.387Z,2.27
2018-12-19T05:41:06.127Z,2.33
2018-12-19T05:43:38.095Z,2.17
2018-12-19T05:46:08.790Z,2.10
2018-12-19T05:48:39.596Z,2.03
2018-12-19T05:51:10.775Z,2.47
2018-12-19T05:53:41.485Z,2.40
2018-12-19T05:56:12.232Z,1.97
2018-12-19T05:58:42.909Z,2.20
2018-12-19T06:01:13.579Z,2.53
2018-12-19T06:03:44.698Z,2.73
2018-12-19T06:06:15.387Z,2.37
2018-12-19T06:08:46.208Z,2.23
2018-12-19T06:11:16.900Z,2.27
2018-12-19T06:13:47.587Z,2.97
2018-12-19T06:16:18.288Z,2.60
2018-12-19T06:18:49.014Z,3.03
2018-12-19T06:21:19.851Z,2.63
2018-12-19T06:23:50.876Z,3.10
2018-12-19T06:26:22.315Z,3.17
2018-12-19T06:28:53.094Z,2.50
2018-12-19T06:31:23.846Z,2.63
2018-12-19T06:33:56.298Z,2.67
2018-12-19T06:36:27.579Z,2.60
2018-12-19T06:38:58.726Z,2.77
2018-12-19T06:41:29.499Z,2.60
2018-12-19T06:44:01.649Z,2.50
2018-12-19T06:46:32.783Z,3.00
2018-12-19T06:49:03.916Z,3.10
2018-12-19T06:51:34.652Z,2.93
2018-12-19T06:54:05.890Z,3.00
2018-12-19T06:56:36.941Z,3.07
2018-12-19T06:59:07.874Z,2.97
2018-12-19T07:01:39.943Z,2.80
2018-12-19T07:04:10.636Z,3.40
2018-12-19T07:06:41.351Z,2.93
2018-12-19T07:09:12.567Z,3.13
2018-12-19T07:11:44.529Z,3.00
2018-12-19T07:14:15.310Z,2.90
2018-12-19T07:16:45.971Z,2.87
2018-12-19T07:19:16.762Z,3.20
2018-12-19T07:21:47.919Z,3.20
2018-12-19T07:24:18.847Z,3.20
2018-12-19T07:26:49.630Z,3.23
2018-12-19T07:29:20.351Z,3.10
2018-12-19T07:31:51.160Z,3.03
2018-12-19T07:34:22.025Z,3.33
2018-12-19T07:36:52.737Z,3.80
2018-12-19T07:39:23.602Z,3.20
2018-12-19T07:41:55.801Z,2.90
2018-12-19T07:44:27.103Z,3.07
2018-12-19T07:46:57.818Z,2.87
2018-12-19T07:49:28.675Z,2.83
2018-12-19T07:52:00.333Z,2.60
2018-12-19T07:54:31.217Z,2.80
2018-12-19T07:57:02.292Z,3.07
2018-12-19T07:59:33.108Z,2.60
2018-12-19T08:02:03.859Z,2.97
2018-12-19T08:04:35.256Z,2.80
2018-12-19T08:07:06.187Z,2.63
2018-12-19T08:09:37.004Z,3.03
2018-12-19T08:12:07.741Z,3.17
2018-12-19T08:14:39.716Z,3.43
2018-12-19T08:17:11.006Z,2.70
2018-12-19T08:19:42.987Z,2.70
2018-12-19T08:22:14.635Z,2.87
2018-12-19T08:24:45.619Z,2.70
2018-12-19T08:27:16.391Z,2.70
2018-12-19T08:29:47.275Z,2.37
2018-12-19T08:32:17.984Z,2.90
2018-12-19T08:34:48.919Z,2.63
2018-12-19T08:37:19.814Z,3.10
2018-12-19T08:39:50.519Z,2.60
2018-12-19T08:42:21.328Z,2.43
2018-12-19T08:44:52.087Z,2.60
2018-12-19T08:47:22.907Z,2.87
2018-12-19T08:49:53.719Z,2.33
2018-12-19T08:52:24.383Z,2.70
2018-12-19T08:54:55.272Z,2.43
2018-12-19T08:57:25.981Z,2.70
2018-12-19T08:59:57.162Z,1.97
2018-12-19T09:02:29.774Z,2.13
2018-12-19T09:05:00.679Z,2.10
2018-12-19T09:07:31.413Z,2.10
2018-12-19T09:10:02.314Z,2.83
2018-12-19T09:12:33.191Z,2.30
2018-12-19T09:15:05.670Z,2.50
2018-12-19T09:17:36.725Z,2.60
2018-12-19T09:20:08.914Z,2.80
2018-12-19T09:22:39.825Z,2.23
2018-12-19T09:25:10.602Z,2.83
2018-12-19T09:27:41.822Z,2.70
2018-12-19T09:30:12.543Z,3.30
2018-12-19T09:32:43.526Z,3.00
2018-12-19T09:35:14.407Z,2.50
2018-12-19T09:37:45.172Z,2.67
2018-12-19T09:40:16.028Z,2.43
2018-12-19T09:42:46.835Z,2.27
2018-12-19T09:45:17.613Z,2.63
2018-12-19T09:47:48.641Z,2.53
2018-12-19T09:50:19.309Z,2.73
2018-12-19T09:52:50.299Z,2.63
2018-12-19T09:55:21.473Z,2.30
2018-12-19T09:57:52.645Z,2.20
2018-12-19T10:00:28.683Z,2.77
2018-12-19T10:02:59.567Z,2.27
2018-12-19T10:05:31.390Z,3.03
2018-12-19T10:08:02.340Z,2.50
2018-12-19T10:10:33.688Z,2.47
2018-12-19T10:13:04.824Z,2.50
2018-12-19T10:15:36.245Z,2.50
2018-12-19T10:18:07.086Z,2.53
2018-12-19T10:20:37.916Z,2.80
2018-12-19T10:23:09.055Z,2.60
2018-12-19T10:25:40.087Z,2.73
2018-12-19T10:28:10.851Z,2.40
2018-12-19T10:30:46.880Z,2.67
2018-12-19T10:33:18.053Z,2.37
2018-12-19T10:35:48.847Z,2.43
2018-12-19T10:38:20.666Z,2.37
2018-12-19T10:40:51.522Z,2.63
2018-12-19T10:43:22.862Z,1.93
2018-12-19T10:45:53.783Z,2.20
2018-12-19T10:48:26.257Z,1.93
2018-12-19T10:50:57.116Z,1.90
2018-12-19T10:53:28.133Z,1.83
2018-12-19T10:55:59.287Z,1.90
2018-12-19T10:58:30.595Z,1.37
2018-12-19T11:01:01.791Z,1.67
2018-12-19T11:03:32.677Z,1.80
2018-12-19T11:06:03.466Z,2.30
2018-12-19T11:08:34.346Z,1.70
2018-12-19T11:11:05.919Z,2.00
2018-12-19T11:13:37.329Z,2.00
2018-12-19T11:16:08.412Z,3.97
2018-12-19T11:18:39.739Z,3.10
2018-12-19T11:21:10.462Z,2.67
2018-12-19T11:23:41.235Z,2.67
2018-12-19T11:26:11.941Z,2.33
2018-12-19T11:28:42.745Z,2.30
2018-12-19T11:31:13.987Z,1.77
2018-12-19T11:33:44.961Z,2.53
2018-12-19T11:36:15.780Z,2.13
2018-12-19T11:38:46.590Z,2.27
2018-12-19T11:41:17.390Z,2.33
2018-12-19T11:43:49.716Z,2.70
2018-12-19T11:46:20.695Z,2.43
2018-12-19T11:48:51.529Z,2.43
2018-12-19T11:51:22.420Z,2.30
2018-12-19T11:53:53.477Z,2.60
2018-12-19T11:56:24.418Z,2.33
2018-12-19T11:58:55.207Z,2.40
2018-12-19T12:01:25.988Z,2.50
2018-12-19T12:03:56.941Z,2.37
2018-12-19T12:06:27.972Z,2.57
2018-12-19T12:08:58.696Z,2.13
2018-12-19T12:11:29.422Z,2.47
2018-12-19T12:14:00.175Z,2.40
2018-12-19T12:16:31.075Z,2.20
2018-12-19T12:19:01.959Z,2.60
2018-12-19T12:21:32.866Z,2.50
2018-12-19T12:24:05.016Z,3.33
2018-12-19T12:26:36.113Z,2.80
2018-12-19T12:29:06.880Z,2.60
2018-12-19T12:31:37.617Z,2.33
2018-12-19T12:34:08.362Z,2.33
2018-12-19T12:36:39.136Z,2.50
2018-12-19T12:39:10.218Z,2.10
2018-12-19T12:41:41.271Z,2.20
2018-12-19T12:44:12.014Z,2.20
2018-12-19T12:46:42.903Z,2.33
2018-12-19T12:49:13.623Z,2.10
2018-12-19T12:51:45.782Z,2.03
2018-12-19T12:54:17.262Z,2.30
2018-12-19T12:56:48.207Z,2.07
2018-12-19T12:59:19.256Z,1.80
2018-12-19T13:01:50.078Z,2.07
2018-12-19T13:04:21.251Z,1.83
2018-12-19T13:06:52.293Z,1.70
2018-12-19T13:09:23.370Z,2.00
2018-12-19T13:11:58.763Z,1.83
2018-12-19T13:14:27.389Z,1.70
2018-12-19T13:16:58.284Z,1.83
2018-12-19T13:19:29.103Z,1.97
2018-12-19T13:22:00.069Z,1.30
2018-12-19T13:24:31.112Z,1.80
2018-12-19T13:27:02.325Z,1.70
2018-12-19T13:29:33.355Z,1.20
2018-12-19T13:32:04.992Z,1.30
2018-12-19T13:34:35.875Z,1.30
2018-12-19T13:37:06.972Z,1.73
2018-12-19T13:39:37.808Z,1.50
2018-12-19T13:42:08.848Z,1.30
2018-12-19T13:44:39.693Z,1.37
2018-12-19T13:47:10.477Z,1.43
2018-12-19T13:49:41.148Z,1.67
2018-12-19T13:52:12.411Z,1.40
2018-12-19T13:54:43.558Z,1.80
2018-12-19T13:57:14.392Z,1.23
2018-12-19T13:59:45.248Z,1.20
2018-12-19T14:02:16.195Z,2.10
2018-12-19T14:04:47.789Z,1.90
2018-12-19T14:07:18.833Z,1.40
2018-12-19T14:09:50.263Z,1.33
2018-12-19T14:12:21.205Z,1.33
2018-12-19T14:14:51.991Z,1.60
2018-12-19T14:17:24.049Z,1.40
2018-12-19T14:19:56.432Z,1.40
2018-12-19T14:22:28.163Z,1.43
2018-12-19T14:24:59.088Z,1.50
2018-12-19T14:27:30.039Z,1.50
2018-12-19T14:30:00.793Z,1.80
2018-12-19T14:32:32.065Z,1.30
2018-12-19T14:35:02.764Z,1.40
2018-12-19T14:37:33.884Z,1.23
2018-12-19T14:40:05.739Z,1.27
2018-12-19T14:42:36.629Z,1.40
2018-12-19T14:45:10.763Z,1.30
2018-12-19T14:47:41.677Z,1.10
2018-12-19T14:50:12.650Z,1.50
2018-12-19T14:52:43.403Z,1.57
2018-12-19T14:55:14.445Z,1.60
2018-12-19T14:57:45.151Z,1.70
2018-12-19T15:00:16.110Z,1.40
2018-12-19T15:02:46.886Z,1.90
2018-12-19T15:05:18.328Z,2.03
2018-12-19T15:07:50.309Z,2.23
2018-12-19T15:10:21.224Z,2.40
2018-12-19T15:12:51.925Z,2.00
2018-12-19T15:15:23.684Z,1.60
2018-12-19T15:17:55.686Z,1.40
2018-12-19T15:20:27.764Z,1.57
2018-12-19T15:22:58.824Z,1.30
2018-12-19T15:25:29.624Z,1.53
2018-12-19T15:28:01.788Z,1.57
2018-12-19T15:30:32.880Z,1.30
2018-12-19T15:33:03.991Z,1.60
2018-12-19T15:35:34.722Z,1.37
2018-12-19T15:38:06.895Z,1.07
2018-12-19T15:40:37.865Z,1.57
2018-12-19T15:43:08.690Z,1.70
2018-12-19T15:45:39.656Z,1.30
2018-12-19T15:48:10.476Z,1.40
2018-12-19T15:50:41.197Z,1.13
2018-12-19T15:53:12.325Z,1.17
2018-12-19T15:55:43.100Z,1.00
2018-12-19T15:58:14.043Z,1.30
2018-12-19T16:00:45.160Z,1.30
2018-12-19T16:03:15.999Z,1.00
2018-12-19T16:05:46.852Z,1.10
2018-12-19T16:08:17.621Z,2.93
2018-12-19T16:10:48.392Z,2.00
2018-12-19T16:13:19.279Z,1.40
2018-12-19T16:15:50.076Z,1.07
2018-12-19T16:18:20.925Z,1.17
2018-12-19T16:20:52.195Z,1.10
2018-12-19T16:23:22.967Z,1.30
2018-12-19T16:25:53.915Z,1.40
2018-12-19T16:28:25.987Z,1.50
2018-12-19T16:30:56.731Z,1.20
2018-12-19T16:33:27.585Z,1.20
2018-12-19T16:35:58.268Z,1.00
2018-12-19T16:38:29.097Z,1.60
2018-12-19T16:40:59.952Z,1.30
2018-12-19T16:43:31.295Z,1.30
2018-12-19T16:46:02.533Z,1.37
2018-12-19T16:48:33.336Z,1.00
2018-12-19T16:51:04.130Z,1.20
2018-12-19T16:53:35.055Z,1.60
2018-12-19T16:56:05.899Z,1.53
2018-12-19T16:58:37.703Z,1.43
2018-12-19T17:01:09.299Z,1.70
2018-12-19T17:03:40.146Z,1.50
2018-12-19T17:06:12.047Z,1.53
2018-12-19T17:08:43.159Z,1.93
2018-12-19T17:11:14.030Z,1.77
2018-12-19T17:13:45.117Z,1.90
2018-12-19T17:16:16.059Z,1.87
2018-12-19T17:18:46.889Z,1.40
2018-12-19T17:21:17.598Z,1.70
2018-12-19T17:23:48.491Z,1.60
2018-12-19T17:26:19.162Z,1.70
2018-12-19T17:28:50.307Z,1.80
2018-12-19T17:31:21.150Z,2.40
2018-12-19T17:33:52.363Z,1.90
2018-12-19T17:36:23.240Z,1.47
2018-12-19T17:38:54.082Z,1.90
2018-12-19T17:41:24.714Z,1.70
2018-12-19T17:43:55.419Z,1.37
2018-12-19T17:46:26.416Z,1.43
2018-12-19T17:48:58.797Z,1.50
2018-12-19T17:51:29.599Z,2.13
2018-12-19T17:54:01.663Z,1.50
2018-12-19T17:56:32.637Z,1.67
2018-12-19T17:59:03.517Z,1.50
2018-12-19T18:01:35.183Z,2.00
2018-12-19T18:04:06.068Z,2.03
2018-12-19T18:06:36.878Z,2.40
2018-12-19T18:09:08.810Z,1.90
2018-12-19T18:11:39.529Z,1.53
2018-12-19T18:14:10.918Z,1.63
2018-12-19T18:16:41.723Z,1.60
2018-12-19T18:19:12.633Z,1.43
2018-12-19T18:21:44.137Z,1.70
2018-12-19T18:24:15.090Z,1.90
2018-12-19T18:26:46.350Z,1.60
2018-12-19T18:29:17.269Z,1.50
2018-12-19T18:31:48.387Z,1.47
2018-12-19T18:34:19.073Z,2.30
2018-12-19T18:36:49.833Z,2.23
2018-12-19T18:39:26.068Z,1.47
2018-12-19T18:41:53.921Z,1.80
2018-12-19T18:44:25.241Z,1.53
2018-12-19T18:46:55.909Z,2.07
2018-12-19T18:49:26.887Z,2.03
2018-12-19T18:51:57.789Z,2.03
2018-12-19T18:54:28.996Z,1.93
2018-12-19T18:57:00.165Z,2.47
2018-12-19T18:59:32.750Z,2.00
2018-12-19T19:02:04.439Z,1.80
2018-12-19T19:04:36.094Z,1.70
2018-12-19T19:07:06.945Z,1.87
2018-12-19T19:09:38.018Z,1.80
2018-12-19T19:12:08.731Z,1.80
2018-12-19T19:14:39.455Z,2.00
2018-12-19T19:17:10.138Z,1.50
2018-12-19T19:19:40.806Z,2.20
2018-12-19T19:22:11.504Z,2.47
2018-12-19T19:24:42.256Z,2.20
2018-12-19T19:27:13.039Z,1.90
2018-12-19T19:29:43.938Z,2.47
2018-12-19T19:32:15.440Z,2.10
2018-12-19T19:34:46.677Z,2.00
2018-12-19T19:37:17.482Z,1.97
2018-12-19T19:39:49.887Z,2.07
2018-12-19T19:42:21.816Z,2.33
2018-12-19T19:44:53.106Z,2.00
2018-12-19T19:47:24.301Z,1.93
2018-12-19T19:49:55.567Z,2.37
2018-12-19T19:52:26.622Z,2.57
2018-12-19T19:54:57.483Z,1.87
2018-12-19T19:57:28.335Z,2.03
2018-12-19T20:00:00.845Z,1.80
2018-12-19T20:02:32.887Z,1.90
2018-12-19T20:05:04.588Z,2.40
2018-12-19T20:07:36.201Z,2.00
2018-12-19T20:10:07.942Z,2.30
2018-12-19T20:12:38.717Z,2.60
2018-12-19T20:15:10.289Z,2.43
2018-12-19T20:17:41.240Z,2.00
2018-12-19T20:20:12.572Z,2.53
2018-12-19T20:22:44.079Z,2.27
2018-12-19T20:25:15.169Z,2.50
2018-12-19T20:27:46.099Z,2.07
2018-12-19T20:30:17.271Z,2.27
2018-12-19T20:32:49.076Z,2.30
2018-12-19T20:35:20.336Z,2.30
2018-12-19T20:37:51.304Z,2.37
2018-12-19T20:40:22.152Z,2.43
2018-12-19T20:42:52.977Z,2.63
2018-12-19T20:45:23.906Z,2.67
2018-12-19T20:47:55.492Z,2.77
2018-12-19T20:50:26.169Z,2.73
2018-12-19T20:52:57.542Z,2.63
2018-12-19T20:55:28.945Z,2.90
2018-12-19T20:58:02.908Z,2.43
2018-12-19T21:00:33.886Z,2.40
2018-12-19T21:03:04.807Z,2.87
2018-12-19T21:05:36.349Z,2.60
2018-12-19T21:08:07.139Z,2.60
2018-12-19T21:10:37.861Z,2.33
2018-12-19T21:13:09.210Z,2.47
2018-12-19T21:15:39.962Z,2.37
2018-12-19T21:18:15.933Z,2.63
2018-12-19T21:20:48.052Z,2.47
2018-12-19T21:23:19.406Z,3.30
2018-12-19T21:25:50.608Z,2.97
2018-12-19T21:28:22.632Z,2.67
2018-12-19T21:30:53.396Z,2.80
2018-12-19T21:33:24.314Z,3.20
2018-12-19T21:35:55.304Z,2.80
2018-12-19T21:38:28.330Z,2.70
2018-12-19T21:41:00.307Z,3.07
2018-12-19T21:43:31.195Z,2.90
2018-12-19T21:46:03.799Z,2.60
2018-12-19T21:48:35.087Z,2.90
2018-12-19T21:51:06.191Z,3.10
2018-12-19T21:53:37.932Z,2.60
2018-12-19T21:56:09.208Z,3.07
2018-12-19T21:58:40.566Z,2.80
2018-12-19T22:01:11.746Z,2.50
2018-12-19T22:03:42.970Z,2.90
2018-12-19T22:06:13.845Z,2.80
2018-12-19T22:08:45.016Z,2.67
2018-12-19T22:11:16.723Z,2.70
2018-12-19T22:13:47.900Z,3.10
2018-12-19T22:16:23.995Z,2.90
2018-12-19T22:18:58.417Z,2.33
2018-12-19T22:21:29.317Z,2.57
2018-12-19T22:24:00.368Z,2.70
2018-12-19T22:26:31.303Z,2.80
2018-12-19T22:29:02.024Z,2.77
2018-12-19T22:31:32.861Z,2.33
2018-12-19T22:34:04.968Z,3.00
2018-12-19T22:36:35.900Z,2.97
2018-12-19T22:39:13.932Z,2.60
2018-12-19T22:41:44.907Z,2.67
2018-12-19T22:44:15.808Z,3.20
2018-12-19T22:46:46.612Z,2.70
2018-12-19T22:49:17.936Z,3.00
2018-12-19T22:51:48.857Z,2.60
2018-12-19T22:54:19.987Z,2.70
2018-12-19T22:56:50.979Z,2.90
2018-12-19T22:59:21.925Z,2.70
2018-12-19T23:01:58.243Z,2.73
2018-12-19T23:04:29.552Z,2.60
2018-12-19T23:07:00.702Z,2.50
2018-12-19T23:09:31.686Z,2.57
2018-12-19T23:12:02.812Z,2.97
2018-12-19T23:14:35.086Z,2.80
2018-12-19T23:17:11.397Z,3.10
2018-12-19T23:19:43.387Z,3.07
2018-12-19T23:22:14.649Z,3.03
2018-12-19T23:24:45.482Z,2.80
2018-12-19T23:27:17.074Z,3.40
2018-12-19T23:29:47.784Z,3.03
2018-12-19T23:32:22.589Z,3.50
2018-12-19T23:34:53.284Z,2.93
2018-12-19T23:37:24.721Z,3.00
2018-12-19T23:39:55.865Z,3.20
2018-12-19T23:42:29.448Z,3.00
2018-12-19T23:45:01.184Z,2.60
2018-12-19T23:47:32.554Z,2.93
2018-12-19T23:50:03.648Z,2.93
2018-12-19T23:52:34.590Z,3.17
2018-12-19T23:55:06.794Z,3.27
2018-12-19T23:57:37.793Z,2.83
